sensor_id;sensor_type;location;lat;lon;timestamp;pressure;altitude;pressure_sealevel;temperature;humidity
54806;BME280;62866;55.776;37.496;2023-04-07T00:02:10;100729.97;;;3.95;53.39
54806;BME280;62866;55.776;37.496;2023-04-07T00:04:36;100702.31;;;3.88;53.55
54806;BME280;62866;55.776;37.496;2023-04-07T00:07:02;100726.25;;;3.97;53.73
54806;BME280;62866;55.776;37.496;2023-04-07T00:09:27;100737.78;;;3.96;53.36
54806;BME280;62866;55.776;37.496;2023-04-07T00:11:53;100724.09;;;3.91;53.67
54806;BME280;62866;55.776;37.496;2023-04-07T00:14:18;100711.59;;;3.82;53.47
54806;BME280;62866;55.776;37.496;2023-04-07T00:16:44;100717.84;;;3.81;53.79
54806;BME280;62866;55.776;37.496;2023-04-07T00:19:10;100724.72;;;3.84;53.86
54806;BME280;62866;55.776;37.496;2023-04-07T00:21:36;100720.63;;;3.79;53.87
54806;BME280;62866;55.776;37.496;2023-04-07T00:24:01;100722.53;;;3.77;54.10
54806;BME280;62866;55.776;37.496;2023-04-07T00:26:27;100720.72;;;3.78;54.02
54806;BME280;62866;55.776;37.496;2023-04-07T00:28:56;100695.16;;;3.56;54.07
54806;BME280;62866;55.776;37.496;2023-04-07T00:31:22;100713.69;;;3.67;54.23
54806;BME280;62866;55.776;37.496;2023-04-07T00:33:48;100725.69;;;3.71;54.38
54806;BME280;62866;55.776;37.496;2023-04-07T00:36:16;100717.41;;;3.65;54.52
54806;BME280;62866;55.776;37.496;2023-04-07T00:38:42;100723.63;;;3.64;54.21
54806;BME280;62866;55.776;37.496;2023-04-07T00:41:07;100714.97;;;3.62;54.74
54806;BME280;62866;55.776;37.496;2023-04-07T00:43:33;100726.16;;;3.54;55.09
54806;BME280;62866;55.776;37.496;2023-04-07T00:45:59;100713.91;;;3.53;55.19
54806;BME280;62866;55.776;37.496;2023-04-07T00:48:24;100727.00;;;3.55;54.66
54806;BME280;62866;55.776;37.496;2023-04-07T00:50:50;100724.13;;;3.47;54.58
54806;BME280;62866;55.776;37.496;2023-04-07T00:53:16;100724.75;;;3.50;55.15
54806;BME280;62866;55.776;37.496;2023-04-07T00:55:45;100720.53;;;3.48;55.26
54806;BME280;62866;55.776;37.496;2023-04-07T00:58:10;100722.56;;;3.44;54.78
54806;BME280;62866;55.776;37.496;2023-04-07T01:00:49;100724.34;;;3.43;55.01
54806;BME280;62866;55.776;37.496;2023-04-07T01:03:33;100721.00;;;3.41;54.88
54806;BME280;62866;55.776;37.496;2023-04-07T01:06:04;100728.22;;;3.39;55.32
54806;BME280;62866;55.776;37.496;2023-04-07T01:13:49;100734.09;;;3.32;55.21
54806;BME280;62866;55.776;37.496;2023-04-07T01:16:51;100733.38;;;3.30;55.27
54806;BME280;62866;55.776;37.496;2023-04-07T01:19:36;100738.88;;;3.27;55.35
54806;BME280;62866;55.776;37.496;2023-04-07T01:22:23;100729.63;;;3.21;55.23
54806;BME280;62866;55.776;37.496;2023-04-07T01:25:58;100737.34;;;3.24;55.01
54806;BME280;62866;55.776;37.496;2023-04-07T01:28:27;100742.84;;;3.21;54.84
54806;BME280;62866;55.776;37.496;2023-04-07T01:30:59;100736.72;;;3.10;55.37
54806;BME280;62866;55.776;37.496;2023-04-07T01:33:28;100733.25;;;3.09;55.63
54806;BME280;62866;55.776;37.496;2023-04-07T01:35:58;100742.13;;;3.08;56.06
54806;BME280;62866;55.776;37.496;2023-04-07T01:38:26;100738.13;;;3.02;55.64
54806;BME280;62866;55.776;37.496;2023-04-07T01:40:53;100740.19;;;2.99;55.71
54806;BME280;62866;55.776;37.496;2023-04-07T01:43:21;100729.00;;;2.95;56.27
54806;BME280;62866;55.776;37.496;2023-04-07T01:45:48;100726.00;;;2.89;56.20
54806;BME280;62866;55.776;37.496;2023-04-07T01:48:15;100732.84;;;2.91;56.54
54806;BME280;62866;55.776;37.496;2023-04-07T01:50:42;100735.09;;;2.85;56.71
54806;BME280;62866;55.776;37.496;2023-04-07T01:53:10;100730.28;;;2.79;56.67
54806;BME280;62866;55.776;37.496;2023-04-07T01:55:36;100733.50;;;2.71;56.45
54806;BME280;62866;55.776;37.496;2023-04-07T01:58:06;100744.69;;;2.75;56.59
54806;BME280;62866;55.776;37.496;2023-04-07T02:00:32;100737.94;;;2.71;56.71
54806;BME280;62866;55.776;37.496;2023-04-07T02:03:11;100737.19;;;2.68;57.06
54806;BME280;62866;55.776;37.496;2023-04-07T02:05:47;100740.09;;;2.65;56.98
54806;BME280;62866;55.776;37.496;2023-04-07T02:08:15;100749.06;;;2.63;56.51
54806;BME280;62866;55.776;37.496;2023-04-07T02:10:43;100741.63;;;2.57;56.93
54806;BME280;62866;55.776;37.496;2023-04-07T02:13:15;100741.00;;;2.53;57.52
54806;BME280;62866;55.776;37.496;2023-04-07T02:15:42;100749.16;;;2.50;57.51
54806;BME280;62866;55.776;37.496;2023-04-07T02:18:12;100750.00;;;2.51;57.32
54806;BME280;62866;55.776;37.496;2023-04-07T02:20:39;100726.91;;;2.42;57.33
54806;BME280;62866;55.776;37.496;2023-04-07T02:23:09;100724.59;;;2.37;57.34
54806;BME280;62866;55.776;37.496;2023-04-07T02:25:35;100730.13;;;2.34;57.65
54806;BME280;62866;55.776;37.496;2023-04-07T02:28:03;100732.97;;;2.31;57.47
54806;BME280;62866;55.776;37.496;2023-04-07T02:30:29;100735.41;;;2.34;57.25
54806;BME280;62866;55.776;37.496;2023-04-07T02:32:55;100746.56;;;2.38;57.84
54806;BME280;62866;55.776;37.496;2023-04-07T02:35:21;100730.44;;;2.29;57.72
54806;BME280;62866;55.776;37.496;2023-04-07T02:37:47;100741.00;;;2.29;57.63
54806;BME280;62866;55.776;37.496;2023-04-07T02:40:13;100738.25;;;2.31;57.91
54806;BME280;62866;55.776;37.496;2023-04-07T02:42:39;100749.78;;;2.30;57.83
54806;BME280;62866;55.776;37.496;2023-04-07T02:45:08;100751.66;;;2.28;57.82
54806;BME280;62866;55.776;37.496;2023-04-07T02:47:35;100747.03;;;2.32;58.01
54806;BME280;62866;55.776;37.496;2023-04-07T02:50:01;100748.81;;;2.31;58.00
54806;BME280;62866;55.776;37.496;2023-04-07T02:52:27;100747.25;;;2.28;58.08
54806;BME280;62866;55.776;37.496;2023-04-07T02:54:55;100751.56;;;2.29;58.26
54806;BME280;62866;55.776;37.496;2023-04-07T02:57:21;100748.28;;;2.26;58.04
54806;BME280;62866;55.776;37.496;2023-04-07T02:59:46;100751.91;;;2.25;58.04
54806;BME280;62866;55.776;37.496;2023-04-07T03:02:12;100747.34;;;2.27;58.29
54806;BME280;62866;55.776;37.496;2023-04-07T03:04:38;100752.63;;;2.27;58.60
54806;BME280;62866;55.776;37.496;2023-04-07T03:07:03;100756.00;;;2.29;58.68
54806;BME280;62866;55.776;37.496;2023-04-07T03:09:29;100758.53;;;2.31;58.29
54806;BME280;62866;55.776;37.496;2023-04-07T03:11:54;100763.69;;;2.32;58.90
54806;BME280;62866;55.776;37.496;2023-04-07T03:14:21;100749.97;;;2.27;58.38
54806;BME280;62866;55.776;37.496;2023-04-07T03:16:58;100759.69;;;2.26;58.80
54806;BME280;62866;55.776;37.496;2023-04-07T03:19:26;100755.16;;;2.28;58.72
54806;BME280;62866;55.776;37.496;2023-04-07T03:21:51;100769.72;;;2.34;58.77
54806;BME280;62866;55.776;37.496;2023-04-07T03:24:21;100768.88;;;2.34;58.78
54806;BME280;62866;55.776;37.496;2023-04-07T03:26:47;100743.38;;;2.21;58.94
54806;BME280;62866;55.776;37.496;2023-04-07T03:29:12;100778.34;;;2.36;58.54
54806;BME280;62866;55.776;37.496;2023-04-07T03:31:41;100749.13;;;2.26;58.84
54806;BME280;62866;55.776;37.496;2023-04-07T03:34:07;100759.16;;;2.34;58.51
54806;BME280;62866;55.776;37.496;2023-04-07T03:36:35;100765.16;;;2.36;58.66
54806;BME280;62866;55.776;37.496;2023-04-07T03:39:01;100771.06;;;2.40;58.14
54806;BME280;62866;55.776;37.496;2023-04-07T03:41:32;100768.16;;;2.43;58.54
54806;BME280;62866;55.776;37.496;2023-04-07T03:43:58;100776.59;;;2.48;58.51
54806;BME280;62866;55.776;37.496;2023-04-07T03:46:24;100776.81;;;2.45;58.68
54806;BME280;62866;55.776;37.496;2023-04-07T03:48:51;100779.25;;;2.48;58.22
54806;BME280;62866;55.776;37.496;2023-04-07T03:51:17;100794.13;;;2.49;58.24
54806;BME280;62866;55.776;37.496;2023-04-07T03:53:45;100779.84;;;2.51;58.44
54806;BME280;62866;55.776;37.496;2023-04-07T03:56:11;100776.41;;;2.51;58.42
54806;BME280;62866;55.776;37.496;2023-04-07T03:58:37;100788.88;;;2.60;58.20
54806;BME280;62866;55.776;37.496;2023-04-07T04:01:03;100783.50;;;2.61;57.86
54806;BME280;62866;55.776;37.496;2023-04-07T04:03:28;100782.56;;;2.62;58.08
54806;BME280;62866;55.776;37.496;2023-04-07T04:05:54;100784.50;;;2.72;57.90
54806;BME280;62866;55.776;37.496;2023-04-07T04:08:19;100788.00;;;2.72;57.94
54806;BME280;62866;55.776;37.496;2023-04-07T04:10:48;100774.91;;;2.71;57.90
54806;BME280;62866;55.776;37.496;2023-04-07T04:13:13;100785.97;;;2.76;57.45
54806;BME280;62866;55.776;37.496;2023-04-07T04:15:39;100787.63;;;2.77;57.36
54806;BME280;62866;55.776;37.496;2023-04-07T04:18:05;100793.44;;;2.82;57.49
54806;BME280;62866;55.776;37.496;2023-04-07T04:20:30;100787.91;;;2.85;57.41
54806;BME280;62866;55.776;37.496;2023-04-07T04:22:59;100787.78;;;2.86;57.01
54806;BME280;62866;55.776;37.496;2023-04-07T04:25:24;100799.16;;;2.99;57.24
54806;BME280;62866;55.776;37.496;2023-04-07T04:27:50;100779.28;;;2.94;57.22
54806;BME280;62866;55.776;37.496;2023-04-07T04:30:16;100801.47;;;3.15;56.54
54806;BME280;62866;55.776;37.496;2023-04-07T04:32:41;100797.63;;;3.19;56.70
54806;BME280;62866;55.776;37.496;2023-04-07T04:35:07;100790.66;;;3.18;56.95
54806;BME280;62866;55.776;37.496;2023-04-07T04:37:33;100798.72;;;3.28;56.80
54806;BME280;62866;55.776;37.496;2023-04-07T04:39:58;100806.19;;;3.34;56.26
54806;BME280;62866;55.776;37.496;2023-04-07T04:42:24;100794.78;;;3.33;56.68
54806;BME280;62866;55.776;37.496;2023-04-07T04:44:54;100798.63;;;3.40;56.40
54806;BME280;62866;55.776;37.496;2023-04-07T04:47:20;100797.09;;;3.49;56.12
54806;BME280;62866;55.776;37.496;2023-04-07T04:49:46;100786.72;;;3.46;56.10
54806;BME280;62866;55.776;37.496;2023-04-07T04:52:11;100803.94;;;3.63;55.53
54806;BME280;62866;55.776;37.496;2023-04-07T04:54:37;100809.22;;;3.63;55.35
54806;BME280;62866;55.776;37.496;2023-04-07T04:57:02;100807.66;;;3.71;55.58
54806;BME280;62866;55.776;37.496;2023-04-07T04:59:28;100811.50;;;3.78;55.23
54806;BME280;62866;55.776;37.496;2023-04-07T05:01:53;100819.00;;;3.85;55.07
54806;BME280;62866;55.776;37.496;2023-04-07T05:04:19;100807.91;;;3.91;54.87
54806;BME280;62866;55.776;37.496;2023-04-07T05:06:45;100798.19;;;3.91;54.51
54806;BME280;62866;55.776;37.496;2023-04-07T05:09:10;100809.94;;;3.98;54.37
54806;BME280;62866;55.776;37.496;2023-04-07T05:11:36;100794.41;;;4.05;55.00
54806;BME280;62866;55.776;37.496;2023-04-07T05:14:01;100807.38;;;4.19;54.64
54806;BME280;62866;55.776;37.496;2023-04-07T05:16:27;100813.63;;;4.29;53.83
54806;BME280;62866;55.776;37.496;2023-04-07T05:18:52;100812.44;;;4.33;54.06
54806;BME280;62866;55.776;37.496;2023-04-07T05:21:18;100811.69;;;4.42;54.09
54806;BME280;62866;55.776;37.496;2023-04-07T05:23:47;100810.22;;;4.49;53.66
54806;BME280;62866;55.776;37.496;2023-04-07T05:26:12;100812.47;;;4.54;53.07
54806;BME280;62866;55.776;37.496;2023-04-07T05:28:40;100820.41;;;4.65;53.46
54806;BME280;62866;55.776;37.496;2023-04-07T05:31:05;100820.00;;;4.81;52.68
54806;BME280;62866;55.776;37.496;2023-04-07T05:33:31;100806.75;;;4.81;52.91
54806;BME280;62866;55.776;37.496;2023-04-07T05:35:57;100819.94;;;4.92;51.97
54806;BME280;62866;55.776;37.496;2023-04-07T05:38:22;100824.09;;;5.06;52.28
54806;BME280;62866;55.776;37.496;2023-04-07T05:40:51;100808.47;;;5.75;51.13
54806;BME280;62866;55.776;37.496;2023-04-07T05:43:19;100813.28;;;9.28;45.61
54806;BME280;62866;55.776;37.496;2023-04-07T05:45:45;100804.56;;;12.38;41.13
54806;BME280;62866;55.776;37.496;2023-04-07T05:48:10;100820.22;;;15.09;36.22
54806;BME280;62866;55.776;37.496;2023-04-07T05:50:36;100817.03;;;17.19;32.76
54806;BME280;62866;55.776;37.496;2023-04-07T05:53:02;100814.69;;;18.01;31.21
54806;BME280;62866;55.776;37.496;2023-04-07T05:55:27;100805.78;;;18.97;30.78
54806;BME280;62866;55.776;37.496;2023-04-07T05:57:53;100813.94;;;19.46;30.85
54806;BME280;62866;55.776;37.496;2023-04-07T06:00:19;100816.44;;;19.23;30.65
54806;BME280;62866;55.776;37.496;2023-04-07T06:02:44;100817.22;;;19.80;28.84
54806;BME280;62866;55.776;37.496;2023-04-07T06:05:16;100824.19;;;21.38;27.26
54806;BME280;62866;55.776;37.496;2023-04-07T06:07:41;100811.00;;;22.68;25.83
54806;BME280;62866;55.776;37.496;2023-04-07T06:10:07;100813.28;;;22.31;25.86
54806;BME280;62866;55.776;37.496;2023-04-07T06:12:33;100821.00;;;20.52;27.58
54806;BME280;62866;55.776;37.496;2023-04-07T06:14:58;100820.72;;;20.05;28.54
54806;BME280;62866;55.776;37.496;2023-04-07T06:17:27;100824.44;;;20.47;27.39
54806;BME280;62866;55.776;37.496;2023-04-07T06:19:52;100815.28;;;21.01;26.48
54806;BME280;62866;55.776;37.496;2023-04-07T06:22:18;100817.44;;;20.99;26.86
54806;BME280;62866;55.776;37.496;2023-04-07T06:24:43;100822.06;;;20.14;26.91
54806;BME280;62866;55.776;37.496;2023-04-07T06:27:11;100823.63;;;19.36;27.90
54806;BME280;62866;55.776;37.496;2023-04-07T06:29:37;100821.97;;;19.03;27.15
54806;BME280;62866;55.776;37.496;2023-04-07T06:32:07;100812.97;;;18.27;27.30
54806;BME280;62866;55.776;37.496;2023-04-07T06:34:36;100825.31;;;18.16;28.13
54806;BME280;62866;55.776;37.496;2023-04-07T06:37:05;100815.81;;;19.21;26.96
54806;BME280;62866;55.776;37.496;2023-04-07T06:39:31;100830.91;;;18.08;27.35
54806;BME280;62866;55.776;37.496;2023-04-07T06:41:56;100832.78;;;15.44;30.16
54806;BME280;62866;55.776;37.496;2023-04-07T06:44:22;100815.16;;;13.98;32.09
54806;BME280;62866;55.776;37.496;2023-04-07T06:46:50;100830.63;;;15.12;31.93
54806;BME280;62866;55.776;37.496;2023-04-07T06:49:18;100836.13;;;16.97;29.27
54806;BME280;62866;55.776;37.496;2023-04-07T06:51:44;100830.56;;;17.45;28.61
54806;BME280;62866;55.776;37.496;2023-04-07T06:54:09;100818.47;;;17.94;28.25
54806;BME280;62866;55.776;37.496;2023-04-07T06:56:40;100826.22;;;19.55;26.86
54806;BME280;62866;55.776;37.496;2023-04-07T06:59:05;100818.97;;;20.29;25.56
54806;BME280;62866;55.776;37.496;2023-04-07T07:01:32;100828.25;;;19.60;26.26
54806;BME280;62866;55.776;37.496;2023-04-07T07:03:57;100827.72;;;18.37;27.87
54806;BME280;62866;55.776;37.496;2023-04-07T07:06:24;100830.69;;;16.91;29.36
54806;BME280;62866;55.776;37.496;2023-04-07T07:08:51;100823.94;;;16.60;29.75
54806;BME280;62866;55.776;37.496;2023-04-07T07:11:16;100830.13;;;17.28;29.84
54806;BME280;62866;55.776;37.496;2023-04-07T07:13:42;100817.00;;;18.62;28.26
54806;BME280;62866;55.776;37.496;2023-04-07T07:16:10;100812.75;;;19.11;26.64
54806;BME280;62866;55.776;37.496;2023-04-07T07:18:39;100833.59;;;19.91;26.39
54806;BME280;62866;55.776;37.496;2023-04-07T07:21:05;100825.13;;;19.81;25.66
54806;BME280;62866;55.776;37.496;2023-04-07T07:23:41;100808.84;;;20.18;26.78
54806;BME280;62866;55.776;37.496;2023-04-07T07:26:09;100823.69;;;20.70;25.63
54806;BME280;62866;55.776;37.496;2023-04-07T07:28:38;100824.66;;;21.47;24.54
54806;BME280;62866;55.776;37.496;2023-04-07T07:31:10;100820.44;;;22.09;23.42
54806;BME280;62866;55.776;37.496;2023-04-07T07:33:43;100816.38;;;23.37;22.81
54806;BME280;62866;55.776;37.496;2023-04-07T07:36:10;100801.06;;;23.69;22.31
54806;BME280;62866;55.776;37.496;2023-04-07T07:38:36;100816.84;;;24.39;21.98
54806;BME280;62866;55.776;37.496;2023-04-07T07:41:02;100814.34;;;24.60;21.45
54806;BME280;62866;55.776;37.496;2023-04-07T07:43:28;100817.00;;;25.03;21.36
54806;BME280;62866;55.776;37.496;2023-04-07T07:45:56;100814.06;;;24.83;21.92
54806;BME280;62866;55.776;37.496;2023-04-07T07:48:25;100817.13;;;24.21;21.82
54806;BME280;62866;55.776;37.496;2023-04-07T07:50:51;100816.13;;;24.27;21.08
54806;BME280;62866;55.776;37.496;2023-04-07T07:53:25;100823.22;;;24.93;21.08
54806;BME280;62866;55.776;37.496;2023-04-07T07:55:51;100807.78;;;25.41;20.89
54806;BME280;62866;55.776;37.496;2023-04-07T07:58:19;100813.25;;;24.61;20.60
54806;BME280;62866;55.776;37.496;2023-04-07T08:00:45;100809.84;;;23.21;21.26
54806;BME280;62866;55.776;37.496;2023-04-07T08:03:10;100811.88;;;21.94;22.38
54806;BME280;62866;55.776;37.496;2023-04-07T08:05:36;100796.25;;;21.43;23.02
54806;BME280;62866;55.776;37.496;2023-04-07T08:08:01;100826.75;;;21.22;23.32
54806;BME280;62866;55.776;37.496;2023-04-07T08:10:30;100803.63;;;21.66;23.21
54806;BME280;62866;55.776;37.496;2023-04-07T08:12:55;100817.00;;;21.90;22.71
54806;BME280;62866;55.776;37.496;2023-04-07T08:15:21;100803.50;;;21.72;22.74
54806;BME280;62866;55.776;37.496;2023-04-07T08:17:47;100797.59;;;21.64;22.96
54806;BME280;62866;55.776;37.496;2023-04-07T08:20:12;100777.34;;;21.48;22.99
54806;BME280;62866;55.776;37.496;2023-04-07T08:22:38;100796.03;;;21.44;23.00
54806;BME280;62866;55.776;37.496;2023-04-07T08:25:04;100798.84;;;21.96;23.28
54806;BME280;62866;55.776;37.496;2023-04-07T08:27:30;100792.59;;;22.87;22.05
54806;BME280;62866;55.776;37.496;2023-04-07T08:30:00;100769.72;;;23.72;20.89
54806;BME280;62866;55.776;37.496;2023-04-07T08:32:39;100798.75;;;23.78;21.40
54806;BME280;62866;55.776;37.496;2023-04-07T08:35:05;100777.63;;;23.52;21.00
54806;BME280;62866;55.776;37.496;2023-04-07T08:37:34;100810.69;;;22.93;21.54
54806;BME280;62866;55.776;37.496;2023-04-07T08:40:01;100796.25;;;22.93;21.52
54806;BME280;62866;55.776;37.496;2023-04-07T08:42:37;100796.53;;;23.08;20.74
54806;BME280;62866;55.776;37.496;2023-04-07T08:45:11;100790.63;;;22.99;20.63
54806;BME280;62866;55.776;37.496;2023-04-07T08:47:41;100794.47;;;23.15;19.65
54806;BME280;62866;55.776;37.496;2023-04-07T08:50:09;100799.91;;;22.18;20.98
54806;BME280;62866;55.776;37.496;2023-04-07T08:52:56;100799.00;;;22.01;22.09
54806;BME280;62866;55.776;37.496;2023-04-07T08:55:24;100800.13;;;22.28;21.46
54806;BME280;62866;55.776;37.496;2023-04-07T08:57:52;100774.47;;;22.01;21.38
54806;BME280;62866;55.776;37.496;2023-04-07T09:00:18;100791.13;;;22.28;20.91
54806;BME280;62866;55.776;37.496;2023-04-07T09:02:44;100803.72;;;21.94;21.53
54806;BME280;62866;55.776;37.496;2023-04-07T09:05:10;100783.25;;;21.45;21.97
54806;BME280;62866;55.776;37.496;2023-04-07T09:07:38;100796.41;;;21.48;22.20
54806;BME280;62866;55.776;37.496;2023-04-07T09:10:05;100796.53;;;21.00;22.24
54806;BME280;62866;55.776;37.496;2023-04-07T09:12:32;100800.06;;;20.40;22.31
54806;BME280;62866;55.776;37.496;2023-04-07T09:14:58;100803.44;;;20.18;22.46
54806;BME280;62866;55.776;37.496;2023-04-07T09:17:28;100797.81;;;19.02;23.15
54806;BME280;62866;55.776;37.496;2023-04-07T09:19:58;100800.13;;;18.02;24.24
54806;BME280;62866;55.776;37.496;2023-04-07T09:22:41;100771.88;;;16.73;25.40
54806;BME280;62866;55.776;37.496;2023-04-07T09:25:13;100793.91;;;15.53;26.87
54806;BME280;62866;55.776;37.496;2023-04-07T09:27:40;100798.59;;;14.60;27.98
54806;BME280;62866;55.776;37.496;2023-04-07T09:30:13;100761.09;;;13.49;29.16
54806;BME280;62866;55.776;37.496;2023-04-07T09:32:40;100790.69;;;13.03;29.97
54806;BME280;62866;55.776;37.496;2023-04-07T09:35:06;100811.56;;;12.70;30.53
54806;BME280;62866;55.776;37.496;2023-04-07T09:37:32;100793.16;;;12.36;30.43
54806;BME280;62866;55.776;37.496;2023-04-07T09:39:57;100800.09;;;12.14;30.94
54806;BME280;62866;55.776;37.496;2023-04-07T09:42:24;100804.94;;;11.88;31.84
54806;BME280;62866;55.776;37.496;2023-04-07T09:44:51;100798.41;;;11.74;32.03
54806;BME280;62866;55.776;37.496;2023-04-07T09:47:25;100806.09;;;11.69;31.59
54806;BME280;62866;55.776;37.496;2023-04-07T09:49:53;100795.22;;;11.79;31.59
54806;BME280;62866;55.776;37.496;2023-04-07T09:52:50;100794.41;;;11.78;32.01
54806;BME280;62866;55.776;37.496;2023-04-07T09:55:21;100778.00;;;11.57;31.38
54806;BME280;62866;55.776;37.496;2023-04-07T09:57:50;100784.38;;;11.32;32.00
54806;BME280;62866;55.776;37.496;2023-04-07T10:00:16;100783.94;;;11.12;32.56
54806;BME280;62866;55.776;37.496;2023-04-07T10:02:42;100794.78;;;11.11;32.93
54806;BME280;62866;55.776;37.496;2023-04-07T10:05:12;100795.28;;;11.06;33.15
54806;BME280;62866;55.776;37.496;2023-04-07T10:07:38;100791.28;;;11.10;32.69
54806;BME280;62866;55.776;37.496;2023-04-07T10:10:04;100797.94;;;11.14;32.73
54806;BME280;62866;55.776;37.496;2023-04-07T10:12:33;100787.44;;;11.13;32.73
54806;BME280;62866;55.776;37.496;2023-04-07T10:14:59;100795.28;;;11.14;32.42
54806;BME280;62866;55.776;37.496;2023-04-07T10:17:30;100794.28;;;10.99;32.76
54806;BME280;62866;55.776;37.496;2023-04-07T10:20:00;100796.63;;;11.02;33.06
54806;BME280;62866;55.776;37.496;2023-04-07T10:22:27;100797.47;;;11.11;33.52
54806;BME280;62866;55.776;37.496;2023-04-07T10:24:58;100800.16;;;11.19;33.17
54806;BME280;62866;55.776;37.496;2023-04-07T10:28:16;100790.41;;;11.34;32.95
54806;BME280;62866;55.776;37.496;2023-04-07T10:30:36;100794.44;;;11.38;32.93
54806;BME280;62866;55.776;37.496;2023-04-07T10:33:03;100794.63;;;11.36;33.39
54806;BME280;62866;55.776;37.496;2023-04-07T10:38:32;100786.84;;;11.66;33.13
54806;BME280;62866;55.776;37.496;2023-04-07T10:40:58;100793.38;;;11.80;32.73
54806;BME280;62866;55.776;37.496;2023-04-07T10:43:38;100778.94;;;11.89;32.57
54806;BME280;62866;55.776;37.496;2023-04-07T10:46:09;100799.69;;;11.95;32.37
54806;BME280;62866;55.776;37.496;2023-04-07T10:48:34;100767.25;;;11.82;32.67
54806;BME280;62866;55.776;37.496;2023-04-07T10:53:30;100778.56;;;12.00;31.21
54806;BME280;62866;55.776;37.496;2023-04-07T10:55:56;100803.34;;;12.02;31.45
54806;BME280;62866;55.776;37.496;2023-04-07T10:58:30;100800.38;;;11.89;31.42
54806;BME280;62866;55.776;37.496;2023-04-07T11:03:22;100796.72;;;11.82;32.08
54806;BME280;62866;55.776;37.496;2023-04-07T11:05:48;100800.09;;;11.75;31.75
54806;BME280;62866;55.776;37.496;2023-04-07T11:08:14;100790.03;;;11.69;32.13
54806;BME280;62866;55.776;37.496;2023-04-07T11:10:39;100791.19;;;11.67;32.31
54806;BME280;62866;55.776;37.496;2023-04-07T11:13:11;100786.84;;;11.66;32.00
54806;BME280;62866;55.776;37.496;2023-04-07T11:15:37;100783.34;;;11.57;32.51
54806;BME280;62866;55.776;37.496;2023-04-07T11:18:20;100785.69;;;11.60;32.79
54806;BME280;62866;55.776;37.496;2023-04-07T11:20:51;100783.31;;;11.73;33.01
54806;BME280;62866;55.776;37.496;2023-04-07T11:23:19;100791.53;;;11.88;32.74
54806;BME280;62866;55.776;37.496;2023-04-07T11:25:48;100787.50;;;11.84;32.08
54806;BME280;62866;55.776;37.496;2023-04-07T11:28:14;100789.69;;;11.64;32.54
54806;BME280;62866;55.776;37.496;2023-04-07T11:30:45;100784.69;;;11.61;32.52
54806;BME280;62866;55.776;37.496;2023-04-07T11:33:16;100790.88;;;11.70;32.46
54806;BME280;62866;55.776;37.496;2023-04-07T11:35:53;100784.16;;;11.66;31.97
54806;BME280;62866;55.776;37.496;2023-04-07T11:38:20;100777.31;;;11.63;32.25
54806;BME280;62866;55.776;37.496;2023-04-07T11:40:47;100785.50;;;11.70;33.03
54806;BME280;62866;55.776;37.496;2023-04-07T11:43:26;100777.75;;;11.91;32.34
54806;BME280;62866;55.776;37.496;2023-04-07T11:46:09;100785.56;;;12.09;32.06
54806;BME280;62866;55.776;37.496;2023-04-07T11:48:37;100780.03;;;12.10;32.19
54806;BME280;62866;55.776;37.496;2023-04-07T11:51:05;100785.72;;;12.07;32.30
54806;BME280;62866;55.776;37.496;2023-04-07T11:53:35;100775.19;;;12.06;32.27
54806;BME280;62866;55.776;37.496;2023-04-07T11:56:09;100765.28;;;12.06;32.43
54806;BME280;62866;55.776;37.496;2023-04-07T11:58:36;100777.66;;;12.15;32.08
54806;BME280;62866;55.776;37.496;2023-04-07T12:01:04;100781.72;;;12.11;32.04
54806;BME280;62866;55.776;37.496;2023-04-07T12:03:35;100776.69;;;12.08;32.28
54806;BME280;62866;55.776;37.496;2023-04-07T12:06:04;100783.72;;;12.09;32.08
54806;BME280;62866;55.776;37.496;2023-04-07T12:08:41;100758.09;;;12.07;31.78
54806;BME280;62866;55.776;37.496;2023-04-07T12:11:08;100777.09;;;12.28;31.80
54806;BME280;62866;55.776;37.496;2023-04-07T12:13:35;100771.19;;;12.33;31.40
54806;BME280;62866;55.776;37.496;2023-04-07T12:16:02;100766.06;;;12.23;31.47
54806;BME280;62866;55.776;37.496;2023-04-07T12:18:28;100765.00;;;12.32;31.58
54806;BME280;62866;55.776;37.496;2023-04-07T12:20:54;100758.50;;;12.27;31.84
54806;BME280;62866;55.776;37.496;2023-04-07T12:23:19;100778.19;;;12.42;31.84
54806;BME280;62866;55.776;37.496;2023-04-07T12:25:45;100756.66;;;12.27;31.81
54806;BME280;62866;55.776;37.496;2023-04-07T12:28:11;100767.56;;;12.26;32.06
54806;BME280;62866;55.776;37.496;2023-04-07T12:30:36;100750.06;;;12.07;32.12
54806;BME280;62866;55.776;37.496;2023-04-07T12:33:02;100777.41;;;12.02;32.33
54806;BME280;62866;55.776;37.496;2023-04-07T12:35:28;100766.00;;;12.00;32.63
54806;BME280;62866;55.776;37.496;2023-04-07T12:37:55;100771.81;;;12.12;32.53
54806;BME280;62866;55.776;37.496;2023-04-07T12:40:24;100782.63;;;12.27;33.14
54806;BME280;62866;55.776;37.496;2023-04-07T12:42:50;100753.69;;;12.14;32.49
54806;BME280;62866;55.776;37.496;2023-04-07T12:45:16;100755.03;;;12.18;32.24
54806;BME280;62866;55.776;37.496;2023-04-07T12:47:43;100773.13;;;12.16;32.41
54806;BME280;62866;55.776;37.496;2023-04-07T12:50:09;100757.41;;;12.13;32.19
54806;BME280;62866;55.776;37.496;2023-04-07T12:52:35;100774.31;;;12.13;32.69
54806;BME280;62866;55.776;37.496;2023-04-07T12:55:01;100756.63;;;12.04;33.05
54806;BME280;62866;55.776;37.496;2023-04-07T12:57:27;100751.75;;;12.00;33.14
54806;BME280;62866;55.776;37.496;2023-04-07T12:59:53;100771.16;;;12.10;32.88
54806;BME280;62866;55.776;37.496;2023-04-07T13:02:19;100769.19;;;12.04;32.56
54806;BME280;62866;55.776;37.496;2023-04-07T13:04:46;100761.50;;;11.93;32.24